createdAt,value
2023-02-23T00:02:06.279Z,34.60
2023-02-23T00:04:34.074Z,34.30
2023-02-23T00:07:00.923Z,38.33
2023-02-23T00:09:35.172Z,36.80
2023-02-23T00:12:09.230Z,35.83
2023-02-23T00:14:37.777Z,37.93
2023-02-23T00:17:05.190Z,38.57
2023-02-23T00:19:33.470Z,36.97
2023-02-23T00:22:01.089Z,36.10
2023-02-23T00:24:27.641Z,36.00
2023-02-23T00:26:54.153Z,36.77
2023-02-23T00:29:22.810Z,35.50
2023-02-23T00:31:50.979Z,33.97
2023-02-23T00:34:21.259Z,34.57
2023-02-23T00:36:51.022Z,35.70
2023-02-23T00:39:26.499Z,34.30
2023-02-23T00:41:53.820Z,36.27
2023-02-23T00:44:21.748Z,36.20
2023-02-23T00:46:52.239Z,35.10
2023-02-23T00:49:20.821Z,38.07
2023-02-23T00:51:47.830Z,35.70
2023-02-23T00:54:15.900Z,37.47
2023-02-23T00:56:42.627Z,37.43
2023-02-23T00:59:09.153Z,35.37
2023-02-23T01:01:37.411Z,36.23
2023-02-23T01:04:05.261Z,36.77
2023-02-23T01:06:32.065Z,36.37
2023-02-23T01:08:58.870Z,35.57
2023-02-23T01:11:27.908Z,38.00
2023-02-23T01:13:58.158Z,38.90
2023-02-23T01:16:28.918Z,35.30
2023-02-23T01:18:57.877Z,34.33
2023-02-23T01:21:30.638Z,36.60
2023-02-23T01:23:57.351Z,35.63
2023-02-23T01:26:26.739Z,35.47
2023-02-23T01:29:00.606Z,35.50
2023-02-23T01:31:28.705Z,37.67
2023-02-23T01:34:01.090Z,38.27
2023-02-23T01:36:32.028Z,37.63
2023-02-23T01:39:00.086Z,38.77
2023-02-23T01:41:28.712Z,37.97
2023-02-23T01:43:55.472Z,35.60
2023-02-23T01:46:22.131Z,36.90
2023-02-23T01:48:48.865Z,35.23
2023-02-23T01:51:20.927Z,33.40
2023-02-23T01:53:58.191Z,34.33
2023-02-23T01:56:30.087Z,35.33
2023-02-23T01:58:59.251Z,32.37
2023-02-23T02:01:25.764Z,35.50
2023-02-23T02:03:56.793Z,36.80
2023-02-23T02:06:28.785Z,34.80
2023-02-23T02:09:00.994Z,33.80
2023-02-23T02:11:36.757Z,35.43
2023-02-23T02:14:17.307Z,35.17
2023-02-23T02:17:30.613Z,35.60
2023-02-23T02:20:31.494Z,36.07
2023-02-23T02:23:27.395Z,34.57
2023-02-23T02:26:11.636Z,34.37
2023-02-23T02:28:59.670Z,35.90
2023-02-23T02:31:32.122Z,36.80
2023-02-23T02:34:25.463Z,37.10
2023-02-23T02:37:34.663Z,35.03
2023-02-23T02:40:16.467Z,37.10
2023-02-23T02:43:14.941Z,35.90
2023-02-23T02:45:55.262Z,34.37
2023-02-23T02:48:46.617Z,33.63
2023-02-23T02:51:28.360Z,34.57
2023-02-23T02:54:10.521Z,37.20
2023-02-23T02:56:42.908Z,39.27
2023-02-23T02:59:31.877Z,37.83
2023-02-23T03:02:17.816Z,37.73
2023-02-23T03:05:02.697Z,38.43
2023-02-23T03:07:55.234Z,39.30
2023-02-23T03:10:54.163Z,40.07
2023-02-23T03:13:49.169Z,39.03
2023-02-23T03:16:59.074Z,39.70
2023-02-23T03:19:49.038Z,40.30
2023-02-23T03:22:42.299Z,38.13
2023-02-23T03:25:37.174Z,39.37
2023-02-23T03:28:40.391Z,38.80
2023-02-23T03:31:48.232Z,36.40
2023-02-23T03:34:37.383Z,40.20
2023-02-23T03:37:34.806Z,37.73
2023-02-23T03:40:37.395Z,33.67
2023-02-23T03:43:28.311Z,37.43
2023-02-23T03:46:15.649Z,35.77
2023-02-23T03:49:02.921Z,36.90
2023-02-23T03:51:52.395Z,34.90
2023-02-23T03:54:45.713Z,34.50
2023-02-23T03:57:35.647Z,34.40
2023-02-23T04:00:26.949Z,34.80
2023-02-23T04:03:13.396Z,37.93
2023-02-23T04:06:00.677Z,37.20
2023-02-23T04:08:52.438Z,38.50
2023-02-23T04:11:45.737Z,39.10
2023-02-23T04:14:19.518Z,41.60
2023-02-23T04:16:47.225Z,42.33
2023-02-23T04:19:14.012Z,43.40
2023-02-23T04:21:40.499Z,46.20
2023-02-23T04:24:06.980Z,43.77
2023-02-23T04:26:33.421Z,46.17
2023-02-23T04:28:59.906Z,44.30
2023-02-23T04:31:27.112Z,42.80
2023-02-23T04:33:53.771Z,48.00
2023-02-23T04:36:20.236Z,44.20
2023-02-23T04:38:46.672Z,44.40
2023-02-23T04:41:13.103Z,45.83
2023-02-23T04:43:39.562Z,46.07
2023-02-23T04:46:05.990Z,45.10
2023-02-23T04:48:32.513Z,46.33
2023-02-23T04:50:59.207Z,45.80
2023-02-23T04:53:26.063Z,45.00
2023-02-23T04:55:52.701Z,45.13
2023-02-23T04:58:19.139Z,45.57
2023-02-23T05:00:45.710Z,49.70
2023-02-23T05:03:12.806Z,48.00
2023-02-23T05:05:39.750Z,48.77
2023-02-23T05:08:06.310Z,47.50
2023-02-23T05:10:32.842Z,47.83
2023-02-23T05:13:01.060Z,46.50
2023-02-23T05:15:27.992Z,43.77
2023-02-23T05:17:55.801Z,47.30
2023-02-23T05:20:22.473Z,48.50
2023-02-23T05:22:48.956Z,46.50
2023-02-23T05:25:15.483Z,46.30
2023-02-23T05:27:41.945Z,47.63
2023-02-23T05:30:10.002Z,46.40
2023-02-23T05:32:36.609Z,50.87
2023-02-23T05:35:03.631Z,49.00
2023-02-23T05:37:30.147Z,49.00
2023-02-23T05:39:56.571Z,47.07
2023-02-23T05:42:23.015Z,46.63
2023-02-23T05:44:49.463Z,48.57
2023-02-23T05:47:15.889Z,44.97
2023-02-23T05:49:42.724Z,47.00
2023-02-23T05:52:09.267Z,47.37
2023-02-23T05:54:35.684Z,45.20
2023-02-23T05:57:02.171Z,45.03
2023-02-23T05:59:28.888Z,46.30
2023-02-23T06:01:55.402Z,49.27
2023-02-23T06:04:23.291Z,46.20
2023-02-23T06:06:50.062Z,45.23
2023-02-23T06:09:16.587Z,44.53
2023-02-23T06:11:43.138Z,42.77
2023-02-23T06:14:09.642Z,46.53
2023-02-23T06:16:36.307Z,44.50
2023-02-23T06:19:02.995Z,42.57
2023-02-23T06:21:29.529Z,43.07
2023-02-23T06:23:57.166Z,43.13
2023-02-23T06:26:23.574Z,43.50
2023-02-23T06:28:50.566Z,44.93
2023-02-23T06:31:17.257Z,43.47
2023-02-23T06:33:43.865Z,41.90
2023-02-23T06:36:10.477Z,42.20
2023-02-23T06:38:38.078Z,43.90
2023-02-23T06:41:09.296Z,41.87
2023-02-23T06:43:36.244Z,42.50
2023-02-23T06:46:03.318Z,43.27
2023-02-23T06:48:29.838Z,43.47
2023-02-23T06:50:59.087Z,45.63
2023-02-23T06:53:25.582Z,42.20
2023-02-23T06:55:52.004Z,44.80
2023-02-23T06:58:18.459Z,45.10
2023-02-23T07:00:44.878Z,42.97
2023-02-23T07:03:11.482Z,42.43
2023-02-23T07:05:37.964Z,45.63
2023-02-23T07:08:05.472Z,46.80
2023-02-23T07:10:32.244Z,43.20
2023-02-23T07:12:59.626Z,44.10
2023-02-23T07:15:26.236Z,43.30
2023-02-23T07:17:52.844Z,44.03
2023-02-23T07:20:19.706Z,42.97
2023-02-23T07:22:46.195Z,45.07
2023-02-23T07:25:12.637Z,48.10
2023-02-23T07:27:39.496Z,44.80
2023-02-23T07:30:06.717Z,45.40
2023-02-23T07:32:33.283Z,46.17
2023-02-23T07:34:59.817Z,45.67
2023-02-23T07:37:26.360Z,45.33
2023-02-23T07:39:52.841Z,48.20
2023-02-23T07:42:19.248Z,47.97
2023-02-23T07:44:45.692Z,45.07
2023-02-23T07:47:13.407Z,45.90
2023-02-23T07:49:39.869Z,48.70
2023-02-23T07:52:06.550Z,47.90
2023-02-23T07:54:33.622Z,46.57
2023-02-23T07:57:00.265Z,49.70
2023-02-23T07:59:26.839Z,47.97
2023-02-23T08:01:53.304Z,45.67
2023-02-23T08:04:19.979Z,49.33
2023-02-23T08:06:46.409Z,50.20
2023-02-23T08:09:12.976Z,47.47
2023-02-23T08:11:40.108Z,50.80
2023-02-23T08:14:06.584Z,52.17
2023-02-23T08:16:33.700Z,48.97
2023-02-23T08:19:01.162Z,47.93
2023-02-23T08:21:29.227Z,47.87
2023-02-23T08:23:56.904Z,48.10
2023-02-23T08:26:25.379Z,45.53
2023-02-23T08:28:52.843Z,46.17
2023-02-23T08:31:22.321Z,44.10
2023-02-23T08:33:49.792Z,45.80
2023-02-23T08:36:16.414Z,43.50
2023-02-23T08:38:43.041Z,45.40
2023-02-23T08:41:09.729Z,44.27
2023-02-23T08:43:36.393Z,43.80
2023-02-23T08:46:02.865Z,46.30
2023-02-23T08:48:29.303Z,42.47
2023-02-23T08:50:57.567Z,41.53
2023-02-23T08:53:25.710Z,45.77
2023-02-23T08:56:11.231Z,44.53
2023-02-23T08:58:37.736Z,50.80
2023-02-23T09:01:05.460Z,50.20
2023-02-23T09:03:35.263Z,51.47
2023-02-23T09:06:10.550Z,56.03
2023-02-23T09:08:37.248Z,59.00
2023-02-23T09:11:03.920Z,55.40
2023-02-23T09:13:30.368Z,57.07
2023-02-23T09:15:57.004Z,60.20
2023-02-23T09:18:29.461Z,56.50
2023-02-23T09:20:56.595Z,56.03
2023-02-23T09:23:24.178Z,59.47
2023-02-23T09:25:50.727Z,55.90
2023-02-23T09:28:19.725Z,56.77
2023-02-23T09:30:47.128Z,54.70
2023-02-23T09:33:14.221Z,54.40
2023-02-23T09:35:41.370Z,55.83
2023-02-23T09:38:08.832Z,53.97
2023-02-23T09:40:53.382Z,57.17
2023-02-23T09:43:45.185Z,57.77
2023-02-23T09:46:29.402Z,52.30
2023-02-23T09:48:58.836Z,54.77
2023-02-23T09:51:26.085Z,50.20
2023-02-23T09:53:55.561Z,52.97
2023-02-23T09:56:43.989Z,51.30
2023-02-23T09:59:15.603Z,51.50
2023-02-23T10:01:48.296Z,49.53
2023-02-23T10:04:26.816Z,50.70
2023-02-23T10:07:15.210Z,52.07
2023-02-23T10:09:41.561Z,49.20
2023-02-23T10:12:27.039Z,49.97
2023-02-23T10:15:01.117Z,50.80
2023-02-23T10:17:55.568Z,52.60
2023-02-23T10:20:42.207Z,52.70
2023-02-23T10:23:16.923Z,52.03
2023-02-23T10:25:48.054Z,50.67
2023-02-23T10:28:21.829Z,50.17
2023-02-23T10:30:50.644Z,50.20
2023-02-23T10:33:38.199Z,49.90
2023-02-23T10:36:19.665Z,49.97
2023-02-23T10:38:46.735Z,48.37
2023-02-23T10:41:14.975Z,44.70
2023-02-23T10:43:41.970Z,45.23
2023-02-23T10:46:19.030Z,45.70
2023-02-23T10:48:47.625Z,45.57
2023-02-23T10:51:28.426Z,43.90
2023-02-23T10:53:55.572Z,45.70
2023-02-23T10:56:23.315Z,47.67
2023-02-23T10:58:49.719Z,47.47
2023-02-23T11:01:32.843Z,47.63
2023-02-23T11:04:32.743Z,46.27
2023-02-23T11:07:16.516Z,45.43
2023-02-23T11:09:47.556Z,42.57
2023-02-23T11:12:22.390Z,42.67
2023-02-23T11:14:54.349Z,44.73
2023-02-23T11:17:37.714Z,43.13
2023-02-23T11:20:43.158Z,41.53
2023-02-23T11:23:16.845Z,41.27
2023-02-23T11:25:45.871Z,42.20
2023-02-23T11:28:25.073Z,40.47
2023-02-23T11:30:51.684Z,40.80
2023-02-23T11:33:25.413Z,40.67
2023-02-23T11:36:17.601Z,40.37
2023-02-23T11:38:46.733Z,39.07
2023-02-23T11:41:24.425Z,38.47
2023-02-23T11:43:56.857Z,36.57
2023-02-23T11:46:24.462Z,36.13
2023-02-23T11:49:00.004Z,35.67
2023-02-23T11:51:28.584Z,33.67
2023-02-23T11:53:55.802Z,34.23
2023-02-23T11:56:25.643Z,33.47
2023-02-23T11:58:59.548Z,35.20
2023-02-23T12:01:45.553Z,34.23
2023-02-23T12:04:30.369Z,33.90
2023-02-23T12:07:25.882Z,34.47
2023-02-23T12:10:00.914Z,32.83
2023-02-23T12:12:29.661Z,31.60
2023-02-23T12:15:09.527Z,31.27
2023-02-23T12:17:48.797Z,34.60
2023-02-23T12:20:21.537Z,32.70
2023-02-23T12:23:20.086Z,32.50
2023-02-23T12:25:49.144Z,31.67
2023-02-23T12:28:37.099Z,31.00
2023-02-23T12:31:24.258Z,31.53
2023-02-23T12:33:59.009Z,29.43
2023-02-23T12:36:39.112Z,26.23
2023-02-23T12:39:24.492Z,29.73
2023-02-23T12:42:15.422Z,29.83
2023-02-23T12:44:49.592Z,32.17
2023-02-23T12:47:34.325Z,29.37
2023-02-23T12:50:33.652Z,29.87
2023-02-23T12:53:21.071Z,30.57
2023-02-23T12:55:53.268Z,32.17
2023-02-23T12:58:29.481Z,30.10
2023-02-23T13:01:03.960Z,27.43
2023-02-23T13:03:51.017Z,30.27
2023-02-23T13:06:39.694Z,28.47
2023-02-23T13:09:30.228Z,26.73
2023-02-23T13:12:08.125Z,25.60
2023-02-23T13:14:39.774Z,24.33
2023-02-23T13:17:28.609Z,24.77
2023-02-23T13:20:01.555Z,22.93
2023-02-23T13:23:19.490Z,22.83
2023-02-23T13:26:04.333Z,24.20
2023-02-23T13:28:57.162Z,25.13
2023-02-23T13:31:31.126Z,23.00
2023-02-23T13:33:59.825Z,24.53
2023-02-23T13:36:29.735Z,23.83
2023-02-23T13:39:19.436Z,25.17
2023-02-23T13:41:46.039Z,24.53
2023-02-23T13:44:27.325Z,24.93
2023-02-23T13:47:06.657Z,25.70
2023-02-23T13:49:51.319Z,23.33
2023-02-23T13:52:39.829Z,25.90
2023-02-23T13:55:40.098Z,23.97
2023-02-23T13:58:16.529Z,22.87
2023-02-23T14:00:44.254Z,22.00
2023-02-23T14:03:24.259Z,22.20
2023-02-23T14:05:56.640Z,22.90
2023-02-23T14:08:37.114Z,21.30
2023-02-23T14:11:05.216Z,21.60
2023-02-23T14:13:34.355Z,20.57
2023-02-23T14:16:11.714Z,21.00
2023-02-23T14:19:31.936Z,19.27
2023-02-23T14:22:06.585Z,21.07
2023-02-23T14:24:33.035Z,19.27
2023-02-23T14:27:14.793Z,19.90
2023-02-23T14:29:46.734Z,19.20
2023-02-23T14:32:13.350Z,18.40
2023-02-23T14:34:54.214Z,18.60
2023-02-23T14:37:34.745Z,18.07
2023-02-23T14:40:08.951Z,17.70
2023-02-23T14:42:38.634Z,18.13
2023-02-23T14:45:17.959Z,18.00
2023-02-23T14:47:47.701Z,18.10
2023-02-23T14:50:25.756Z,18.63
2023-02-23T14:52:54.991Z,17.43
2023-02-23T14:55:29.096Z,18.70
2023-02-23T14:57:56.597Z,19.33
2023-02-23T15:00:28.797Z,18.30
2023-02-23T15:02:58.839Z,19.07
2023-02-23T15:05:40.926Z,19.70
2023-02-23T15:08:10.838Z,19.77
2023-02-23T15:10:40.631Z,19.20
2023-02-23T15:13:29.006Z,18.00
2023-02-23T15:15:57.680Z,19.53
2023-02-23T15:18:36.055Z,20.10
2023-02-23T15:21:13.852Z,19.03
2023-02-23T15:23:40.603Z,21.00
2023-02-23T15:26:31.790Z,22.63
2023-02-23T15:29:10.582Z,22.90
2023-02-23T15:31:41.084Z,23.60
2023-02-23T15:34:11.573Z,23.97
2023-02-23T15:36:41.163Z,23.83
2023-02-23T15:39:13.757Z,23.77
2023-02-23T15:41:43.727Z,24.10
2023-02-23T15:44:20.257Z,23.33
2023-02-23T15:46:53.061Z,25.33
2023-02-23T15:49:21.898Z,24.43
2023-02-23T15:51:52.597Z,23.63
2023-02-23T15:54:46.837Z,24.13
2023-02-23T15:57:30.221Z,23.67
2023-02-23T16:00:07.819Z,31.03
2023-02-23T16:02:36.959Z,24.17
2023-02-23T16:05:20.263Z,23.47
2023-02-23T16:07:46.747Z,22.60
2023-02-23T16:10:26.578Z,23.87
2023-02-23T16:12:54.200Z,24.40
2023-02-23T16:15:26.837Z,23.20
2023-02-23T16:18:00.159Z,25.50
2023-02-23T16:20:38.495Z,24.80
2023-02-23T16:23:06.949Z,25.17
2023-02-23T16:25:34.469Z,24.73
2023-02-23T16:28:18.036Z,24.10
2023-02-23T16:30:57.182Z,25.73
2023-02-23T16:33:28.131Z,24.40
2023-02-23T16:36:18.844Z,24.70
2023-02-23T16:39:03.688Z,23.67
2023-02-23T16:41:32.925Z,25.07
2023-02-23T16:44:05.553Z,25.57
2023-02-23T16:46:53.426Z,23.63
2023-02-23T16:49:23.259Z,24.50
2023-02-23T16:51:50.799Z,25.93
2023-02-23T16:54:17.305Z,26.80
2023-02-23T16:56:44.376Z,26.23
2023-02-23T16:59:15.757Z,27.80
2023-02-23T17:01:42.240Z,26.37
2023-02-23T17:04:15.288Z,23.63
2023-02-23T17:06:43.448Z,24.53
2023-02-23T17:09:11.168Z,25.57
2023-02-23T17:11:37.868Z,24.20
2023-02-23T17:14:04.350Z,26.07
2023-02-23T17:16:30.825Z,22.90
2023-02-23T17:18:59.502Z,22.63
2023-02-23T17:21:26.138Z,23.90
2023-02-23T17:23:53.283Z,23.07
2023-02-23T17:26:24.841Z,23.30
2023-02-23T17:28:52.212Z,22.90
2023-02-23T17:31:20.129Z,23.27
2023-02-23T17:33:47.277Z,22.60
2023-02-23T17:36:16.606Z,24.13
2023-02-23T17:38:45.902Z,23.43
2023-02-23T17:41:17.857Z,23.33
2023-02-23T17:43:44.573Z,23.37
2023-02-23T17:46:12.089Z,21.37
2023-02-23T17:48:40.650Z,19.37
2023-02-23T17:51:09.118Z,20.47
2023-02-23T17:53:36.351Z,21.53
2023-02-23T17:56:02.838Z,20.27
2023-02-23T17:58:29.755Z,20.53
2023-02-23T18:00:58.230Z,20.90
2023-02-23T18:03:25.963Z,19.80
2023-02-23T18:05:52.845Z,19.53
2023-02-23T18:08:20.203Z,20.13
2023-02-23T18:10:54.508Z,19.00
2023-02-23T18:13:21.262Z,17.33
2023-02-23T18:15:52.619Z,18.30
2023-02-23T18:18:19.260Z,17.07
2023-02-23T18:20:54.286Z,18.60
2023-02-23T18:23:21.640Z,19.53
2023-02-23T18:25:49.430Z,17.37
2023-02-23T18:28:17.435Z,18.20
2023-02-23T18:30:44.858Z,17.60
2023-02-23T18:33:12.946Z,17.53
2023-02-23T18:35:44.885Z,17.00
2023-02-23T18:38:13.788Z,16.60
2023-02-23T18:40:40.958Z,15.60
2023-02-23T18:43:07.959Z,16.47
2023-02-23T18:45:34.811Z,16.13
2023-02-23T18:48:01.328Z,17.23
2023-02-23T18:50:27.967Z,16.30
2023-02-23T18:52:56.491Z,15.77
2023-02-23T18:55:23.972Z,16.97
2023-02-23T18:57:52.671Z,15.80
2023-02-23T19:00:20.079Z,14.53
2023-02-23T19:02:47.275Z,15.80
2023-02-23T19:05:14.282Z,15.80
2023-02-23T19:07:41.150Z,15.30
2023-02-23T19:10:12.052Z,15.03
2023-02-23T19:12:39.532Z,15.27
2023-02-23T19:15:07.805Z,14.70
2023-02-23T19:17:35.103Z,14.30
2023-02-23T19:20:01.825Z,14.83
2023-02-23T19:22:29.482Z,15.03
2023-02-23T19:24:56.133Z,14.37
2023-02-23T19:27:22.892Z,13.57
2023-02-23T19:29:49.386Z,13.03
2023-02-23T19:32:16.758Z,14.27
2023-02-23T19:34:46.350Z,14.93
2023-02-23T19:37:13.226Z,14.93
2023-02-23T19:39:39.957Z,14.23
2023-02-23T19:42:07.206Z,14.90
2023-02-23T19:44:34.021Z,14.37
2023-02-23T19:47:00.558Z,14.03
2023-02-23T19:49:27.050Z,11.53
2023-02-23T19:51:53.588Z,16.37
2023-02-23T19:54:20.714Z,14.17
2023-02-23T19:56:49.809Z,13.70
2023-02-23T19:59:16.562Z,14.00
2023-02-23T20:01:45.233Z,14.27
2023-02-23T20:04:11.785Z,15.73
2023-02-23T20:06:46.806Z,14.10
2023-02-23T20:09:14.552Z,16.00
2023-02-23T20:11:42.510Z,13.77
2023-02-23T20:14:09.965Z,14.30
2023-02-23T20:16:37.200Z,16.00
2023-02-23T20:19:05.723Z,14.50
2023-02-23T20:21:32.678Z,14.40
2023-02-23T20:24:01.458Z,13.90
2023-02-23T20:26:30.898Z,14.33
2023-02-23T20:28:58.568Z,14.00
2023-02-23T20:31:36.924Z,15.83
2023-02-23T20:34:10.888Z,15.10
2023-02-23T20:36:37.782Z,14.17
2023-02-23T20:39:04.848Z,13.90
2023-02-23T20:41:31.588Z,14.17
2023-02-23T20:44:00.854Z,13.77
2023-02-23T20:46:30.654Z,13.47
2023-02-23T20:48:57.561Z,15.63
2023-02-23T20:51:23.986Z,14.37
2023-02-23T20:53:50.416Z,14.90
2023-02-23T20:56:19.205Z,13.50
2023-02-23T20:58:46.228Z,16.47
2023-02-23T21:01:23.493Z,14.00
2023-02-23T21:03:52.199Z,17.77
2023-02-23T21:06:24.461Z,17.10
2023-02-23T21:08:55.552Z,17.23
2023-02-23T21:11:27.138Z,16.40
2023-02-23T21:13:53.590Z,20.30
2023-02-23T21:16:23.658Z,20.77
2023-02-23T21:19:04.210Z,20.60
2023-02-23T21:21:42.917Z,21.43
2023-02-23T21:24:09.612Z,16.60
2023-02-23T21:26:36.629Z,15.40
2023-02-23T21:29:04.367Z,15.20
2023-02-23T21:31:31.289Z,16.13
2023-02-23T21:33:57.804Z,15.27
2023-02-23T21:36:24.269Z,18.17
2023-02-23T21:38:51.360Z,16.40
2023-02-23T21:41:18.261Z,16.47
2023-02-23T21:43:45.040Z,20.73
2023-02-23T21:46:16.607Z,14.67
2023-02-23T21:48:43.652Z,16.33
2023-02-23T21:51:13.496Z,18.90
2023-02-23T21:53:41.114Z,18.67
2023-02-23T21:56:13.191Z,17.93
2023-02-23T21:58:43.926Z,18.83
2023-02-23T22:01:31.492Z,18.30
2023-02-23T22:03:58.039Z,19.17
2023-02-23T22:06:27.754Z,15.97
2023-02-23T22:08:54.836Z,10.20
2023-02-23T22:11:27.155Z,9.07
2023-02-23T22:13:59.023Z,7.50
2023-02-23T22:16:32.193Z,7.90
2023-02-23T22:19:03.414Z,6.97
2023-02-23T22:21:39.114Z,6.27
2023-02-23T22:24:06.742Z,7.70
2023-02-23T22:26:36.070Z,7.40
2023-02-23T22:29:03.020Z,7.97
2023-02-23T22:31:29.887Z,7.43
2023-02-23T22:33:56.896Z,7.30
2023-02-23T22:36:23.537Z,7.70
2023-02-23T22:38:50.088Z,11.00
2023-02-23T22:41:16.652Z,9.87
2023-02-23T22:43:46.630Z,9.90
2023-02-23T22:46:14.482Z,10.90
2023-02-23T22:48:45.177Z,8.83
2023-02-23T22:51:14.119Z,8.73
2023-02-23T22:53:40.733Z,8.87
2023-02-23T22:56:08.473Z,9.67
2023-02-23T22:58:36.218Z,8.03
2023-02-23T23:01:05.709Z,8.87
2023-02-23T23:03:36.496Z,7.50
2023-02-23T23:06:05.358Z,7.87
2023-02-23T23:08:37.208Z,9.30
2023-02-23T23:11:09.461Z,9.90
2023-02-23T23:13:51.764Z,10.07
2023-02-23T23:16:31.003Z,9.70
2023-02-23T23:19:02.705Z,10.40
2023-02-23T23:21:32.026Z,11.90
2023-02-23T23:24:01.608Z,12.53
2023-02-23T23:26:29.120Z,11.80
2023-02-23T23:28:58.576Z,12.73
2023-02-23T23:31:29.308Z,13.63
2023-02-23T23:34:01.556Z,10.00
2023-02-23T23:36:32.390Z,9.47
2023-02-23T23:38:59.710Z,9.93
2023-02-23T23:41:28.493Z,8.63
2023-02-23T23:43:57.901Z,7.20
2023-02-23T23:46:30.745Z,7.63
2023-02-23T23:49:08.465Z,6.83
2023-02-23T23:51:50.283Z,7.37
2023-02-23T23:54:26.186Z,5.93
2023-02-23T23:56:52.757Z,5.63
2023-02-23T23:59:22.918Z,5.77
